Time;durP1;ratioP1;P1;durP2;ratioP2;P2;SDS_P1;SDS_P2;PMS_P1;PMS_P2;Temp;Humidity;BMP_temperature;BMP_pressure;BME280_temperature;BME280_humidity;BME280_pressure;Samples;Min_cycle;Max_cycle;Signal;HPM_P1;HPM_P2
2022/10/11 00:01:49;;;;;;;5.53;3.45;;;;;;;5.69;100.00;100465.44;1811342;77;21795;-61
2022/10/11 00:04:17;;;;;;;6.80;3.70;;;;;;;5.69;100.00;100462.83;1796759;78;20951;-60
2022/10/11 00:06:43;;;;;;;6.00;3.67;;;;;;;5.70;100.00;100464.13;1794246;77;21556;-61
2022/10/11 00:09:11;;;;;;;3.80;3.22;;;;;;;5.70;100.00;100452.84;1793492;78;21524;-60
2022/10/11 00:11:39;;;;;;;4.62;3.35;;;;;;;5.70;100.00;100452.84;1798909;78;21100;-60
2022/10/11 00:14:05;;;;;;;4.00;3.17;;;;;;;5.70;100.00;100454.14;1787190;78;21729;-60
2022/10/11 00:16:33;;;;;;;4.53;3.60;;;;;;;5.69;100.00;100455.89;1790363;78;21489;-60
2022/10/11 00:19:02;;;;;;;8.85;4.08;;;;;;;5.64;100.00;100456.38;1795807;78;21552;-60
2022/10/11 00:21:30;;;;;;;4.60;3.45;;;;;;;5.59;100.00;100449.88;1798261;78;20993;-59
2022/10/11 00:23:57;;;;;;;4.62;3.40;;;;;;;5.53;100.00;100456.46;1808028;78;21559;-59
2022/10/11 00:26:23;;;;;;;5.45;3.70;;;;;;;5.47;100.00;100452.61;1771309;80;21885;-59
2022/10/11 00:28:52;;;;;;;4.92;3.60;;;;;;;5.43;100.00;100452.22;1783286;78;21572;-60
2022/10/11 00:31:19;;;;;;;4.70;3.45;;;;;;;5.36;100.00;100454.00;1753529;79;21601;-60
2022/10/11 00:33:47;;;;;;;4.20;3.20;;;;;;;5.32;100.00;100452.75;1799579;78;21429;-60
2022/10/11 00:36:16;;;;;;;4.60;3.25;;;;;;;5.29;100.00;100454.06;1806657;78;21615;-60
2022/10/11 00:38:44;;;;;;;6.55;3.30;;;;;;;5.27;100.00;100452.77;1788403;78;21550;-59
2022/10/11 00:41:11;;;;;;;5.25;3.67;;;;;;;5.32;100.00;100452.30;1801094;78;21107;-60
2022/10/11 00:43:38;;;;;;;6.37;3.60;;;;;;;5.36;100.00;100454.45;1798335;78;20950;-60
2022/10/11 00:46:19;;;;;;;4.42;3.72;;;;;;;5.40;100.00;100450.48;1798552;78;21490;-60
2022/10/11 00:48:54;;;;;;;5.50;3.47;;;;;;;5.37;100.00;100449.64;1795751;78;21517;-60
2022/10/11 00:51:32;;;;;;;5.72;3.35;;;;;;;5.34;100.00;100449.69;1767628;79;21839;-60
2022/10/11 00:53:58;;;;;;;4.17;3.30;;;;;;;5.33;100.00;100447.53;1753581;80;21429;-63
2022/10/11 00:56:34;;;;;;;5.85;3.45;;;;;;;5.32;100.00;100441.88;1805737;78;21560;-60
2022/10/11 00:59:05;;;;;;;6.55;3.98;;;;;;;5.29;100.00;100444.94;1712709;81;21574;-60
2022/10/11 01:01:31;;;;;;;7.37;4.08;;;;;;;5.28;100.00;100449.75;1733569;81;21510;-60
2022/10/11 01:03:58;;;;;;;4.70;3.35;;;;;;;5.25;100.00;100444.09;1688712;81;21809;-60
2022/10/11 01:06:26;;;;;;;4.28;3.17;;;;;;;5.26;100.00;100441.94;1740581;79;21550;-60
2022/10/11 01:08:54;;;;;;;6.45;3.25;;;;;;;5.26;100.00;100445.39;1731495;80;21514;-60
2022/10/11 01:11:23;;;;;;;7.92;3.42;;;;;;;5.36;100.00;100450.53;1736323;80;21499;-59
2022/10/11 01:14:21;;;;;;;6.42;3.15;;;;;;;5.44;100.00;100453.52;1770241;80;21399;-60
2022/10/11 01:17:19;;;;;;;6.12;3.45;;;;;;;5.51;100.00;100450.84;1756481;80;22075;-60
2022/10/11 01:20:29;;;;;;;4.67;3.12;;;;;;;5.44;100.00;100451.33;1751411;80;21539;-59
2022/10/11 01:23:27;;;;;;;5.22;3.33;;;;;;;5.37;100.00;100460.96;1754512;80;21490;-59
2022/10/11 01:26:32;;;;;;;4.12;3.47;;;;;;;5.36;100.00;100461.83;1750806;80;21491;-59
2022/10/11 01:29:41;;;;;;;4.22;3.22;;;;;;;5.38;100.00;100462.67;1751859;80;21037;-60
2022/10/11 01:32:14;;;;;;;9.15;3.42;;;;;;;5.36;100.00;100463.58;1763163;79;21800;-59
2022/10/11 01:35:14;;;;;;;7.50;3.47;;;;;;;5.34;100.00;100464.03;1773981;79;21555;-59
2022/10/11 01:37:48;;;;;;;4.33;2.67;;;;;;;5.36;100.00;100461.83;1768388;79;21426;-59
2022/10/11 01:40:25;;;;;;;6.53;2.95;;;;;;;5.41;100.00;100457.89;1761203;80;21046;-59
2022/10/11 01:42:52;;;;;;;7.70;3.70;;;;;;;5.44;100.00;100466.56;1756206;80;20946;-58
2022/10/11 01:45:18;;;;;;;4.50;3.10;;;;;;;5.43;100.00;100467.42;1735702;81;21588;-58
2022/10/11 01:47:45;;;;;;;4.37;2.92;;;;;;;5.41;100.00;100464.41;1748185;80;21415;-58
2022/10/11 01:50:47;;;;;;;4.30;3.10;;;;;;;5.33;100.00;100467.50;1732674;81;21472;-58
2022/10/11 01:54:00;;;;;;;5.12;3.58;;;;;;;5.27;100.00;100467.11;1729165;80;21491;-59
2022/10/11 01:56:45;;;;;;;6.33;2.95;;;;;;;5.29;100.00;100464.50;1721327;80;21522;-59
2022/10/11 01:59:32;;;;;;;4.90;3.27;;;;;;;5.26;100.00;100461.05;1673410;82;21979;-59
2022/10/11 02:02:16;;;;;;;5.15;3.02;;;;;;;5.23;100.00;100465.41;1727727;81;21427;-60
2022/10/11 02:04:50;;;;;;;4.90;3.52;;;;;;;5.16;100.00;100467.22;1740689;81;21045;-60
2022/10/11 02:07:44;;;;;;;4.47;3.05;;;;;;;5.15;100.00;100467.22;1754595;80;21491;-60
2022/10/11 02:10:22;;;;;;;5.55;2.90;;;;;;;5.19;100.00;100468.92;1753227;79;21022;-59
2022/10/11 02:12:58;;;;;;;4.60;3.22;;;;;;;5.21;100.00;100468.47;1798350;77;21913;-61
2022/10/11 02:15:27;;;;;;;4.58;3.10;;;;;;;5.21;100.00;100469.77;1758677;80;21493;-59
2022/10/11 02:17:56;;;;;;;4.65;2.65;;;;;;;5.23;100.00;100470.63;1763758;80;21659;-59
2022/10/11 02:20:24;;;;;;;2.67;2.47;;;;;;;5.19;100.00;100469.78;1806102;78;21509;-60
2022/10/11 02:22:56;;;;;;;3.40;2.60;;;;;;;5.18;100.00;100465.46;1799013;78;21072;-60
2022/10/11 02:25:26;;;;;;;6.90;2.60;;;;;;;5.17;100.00;100465.47;1795612;78;21792;-60
2022/10/11 02:27:54;;;;;;;3.65;2.65;;;;;;;5.14;100.00;100461.56;1765239;79;21518;-60
2022/10/11 02:30:21;;;;;;;5.10;2.77;;;;;;;5.13;100.00;100463.32;1789701;78;21676;-60
2022/10/11 02:32:47;;;;;;;3.70;2.90;;;;;;;5.09;100.00;100458.16;1792493;78;20989;-60
2022/10/11 02:35:14;;;;;;;2.77;2.45;;;;;;;5.03;100.00;100457.77;1770285;80;21564;-59
2022/10/11 02:37:50;;;;;;;3.72;2.40;;;;;;;4.97;100.00;100459.08;1769413;78;21825;-59
2022/10/11 02:40:26;;;;;;;3.02;2.20;;;;;;;4.96;100.00;100463.44;1785356;78;21438;-59
2022/10/11 02:42:58;;;;;;;2.77;2.20;;;;;;;4.98;100.00;100465.59;1789716;78;21627;-60
2022/10/11 02:45:40;;;;;;;3.00;2.27;;;;;;;4.98;100.00;100462.98;1791222;77;21582;-59
2022/10/11 02:48:07;;;;;;;2.95;2.45;;;;;;;4.95;100.00;100453.87;1770427;80;21477;-59
2022/10/11 02:50:33;;;;;;;3.60;2.05;;;;;;;4.91;100.00;100459.13;1805074;78;21796;-60
2022/10/11 02:53:00;;;;;;;2.85;2.20;;;;;;;4.83;100.00;100463.09;1796347;78;20942;-59
2022/10/11 02:55:27;;;;;;;4.22;2.65;;;;;;;4.83;100.00;100463.95;1796536;78;21500;-59
2022/10/11 02:57:54;;;;;;;2.52;2.30;;;;;;;4.82;100.00;100462.65;1796881;78;21521;-65
2022/10/11 03:00:21;;;;;;;2.95;2.65;;;;;;;4.80;100.00;100464.41;1798204;78;21626;-59
2022/10/11 03:02:48;;;;;;;2.80;2.20;;;;;;;4.76;100.00;100461.39;1763540;79;21783;-60
2022/10/11 03:05:14;;;;;;;3.62;2.00;;;;;;;4.75;100.00;100460.53;1800985;78;21509;-59
2022/10/11 03:07:42;;;;;;;2.42;2.10;;;;;;;4.81;100.00;100455.73;1767714;80;21530;-59
2022/10/11 03:10:10;;;;;;;3.47;2.20;;;;;;;4.87;100.00;100458.28;1801628;78;21527;-59
2022/10/11 03:12:36;;;;;;;3.00;2.10;;;;;;;4.87;100.00;100454.37;1799764;78;21619;-60
2022/10/11 03:15:05;;;;;;;2.70;1.90;;;;;;;4.82;100.00;100450.51;1804436;78;21907;-59
2022/10/11 03:17:33;;;;;;;3.00;2.10;;;;;;;4.79;100.00;100452.27;1797021;77;21420;-59
2022/10/11 03:20:01;;;;;;;;;;;;;;;4.77;100.00;100456.63;1803424;78;21445;-59
2022/10/11 03:22:28;;;;;;;4.60;2.45;;;;;;;4.67;100.00;100459.28;1791662;77;20427;-59
2022/10/11 03:24:55;;;;;;;3.60;2.25;;;;;;;4.63;100.00;100456.27;1796759;78;21536;-59
2022/10/11 03:27:23;;;;;;;3.15;2.40;;;;;;;4.63;100.00;100459.29;1748762;80;21916;-59
2022/10/11 03:29:49;;;;;;;3.55;2.33;;;;;;;4.58;100.00;100463.23;1757037;80;21415;-59
2022/10/11 03:32:16;;;;;;;3.35;2.40;;;;;;;4.56;100.00;100458.89;1749090;81;21442;-60
2022/10/11 03:34:42;;;;;;;4.92;1.92;;;;;;;4.56;100.00;100458.89;1748541;80;21469;-59
2022/10/11 03:37:09;;;;;;;6.00;1.80;;;;;;;4.62;100.00;100461.48;1750513;79;21565;-60
2022/10/11 03:39:37;;;;;;;5.95;2.37;;;;;;;4.65;100.00;100461.45;1753974;80;22149;-59
2022/10/11 03:42:05;;;;;;;2.87;2.17;;;;;;;4.68;100.00;100467.95;1750956;81;24898;-59
2022/10/11 03:44:32;;;;;;;2.33;1.80;;;;;;;4.71;100.00;100467.06;1766457;80;21570;-60
2022/10/11 03:46:58;;;;;;;3.40;2.10;;;;;;;4.69;100.00;100461.88;1759726;79;21478;-59
2022/10/11 03:49:25;;;;;;;2.20;2.00;;;;;;;4.69;100.00;100455.38;1770209;79;21554;-60
2022/10/11 03:51:52;;;;;;;2.52;2.08;;;;;;;4.69;100.00;100452.77;1776996;80;21750;-60
2022/10/11 03:54:19;;;;;;;3.15;1.70;;;;;;;4.67;100.00;100456.67;1768860;80;21364;-59
2022/10/11 03:56:45;;;;;;;3.20;2.30;;;;;;;4.65;100.00;100454.52;1778596;80;21479;-59
2022/10/11 03:59:12;;;;;;;5.10;2.22;;;;;;;4.63;100.00;100457.98;1776817;80;21474;-59
2022/10/11 04:01:39;;;;;;;3.15;2.12;;;;;;;4.58;100.00;100456.72;1773205;79;21101;-59
2022/10/11 04:04:06;;;;;;;2.20;1.98;;;;;;;4.56;100.00;100461.08;1753105;80;21991;-60
2022/10/11 04:06:33;;;;;;;2.07;1.50;;;;;;;4.53;100.00;100462.38;1760055;80;21528;-60
2022/10/11 04:09:00;;;;;;;3.62;1.90;;;;;;;4.57;100.00;100465.39;1768932;80;21738;-61
2022/10/11 04:11:29;;;;;;;2.30;1.90;;;;;;;4.61;100.00;100469.71;1766878;80;21089;-59
2022/10/11 04:13:55;;;;;;;4.67;2.60;;;;;;;4.65;100.00;100478.38;1753095;79;21652;-60
2022/10/11 04:16:22;;;;;;;4.17;2.83;;;;;;;4.60;100.00;100482.77;1767304;80;21812;-60
2022/10/11 04:18:50;;;;;;;4.60;2.67;;;;;;;4.56;100.00;100484.93;1761741;80;21425;-61
2022/10/11 04:21:17;;;;;;;4.35;2.45;;;;;;;4.57;100.00;100474.52;1802908;78;21477;-60
2022/10/11 04:23:44;;;;;;;4.57;2.70;;;;;;;4.57;100.00;100483.63;1801355;78;21414;-60
2022/10/11 04:26:11;;;;;;;2.83;2.30;;;;;;;4.57;100.00;100481.02;1812159;77;21509;-60
2022/10/11 04:28:38;;;;;;;3.08;2.20;;;;;;;4.38;100.00;100435.12;1796823;77;21916;-60
2022/10/11 04:31:06;;;;;;;2.05;1.85;;;;;;;4.60;100.00;100477.11;1801768;77;21556;-60
2022/10/11 04:33:33;;;;;;;3.05;2.17;;;;;;;4.58;100.00;100474.95;1799766;78;21465;-60
2022/10/11 04:36:01;;;;;;;2.85;1.95;;;;;;;4.60;100.00;100485.38;1799820;78;21834;-59
2022/10/11 04:38:28;;;;;;;2.67;1.50;;;;;;;4.68;100.00;100481.83;1800522;78;21549;-60
2022/10/11 04:40:55;;;;;;;2.75;2.30;;;;;;;4.77;100.00;100486.59;1803878;78;21760;-60
2022/10/11 04:43:21;;;;;;;3.80;2.52;;;;;;;4.84;100.00;100489.14;1780843;78;21519;-61
2022/10/11 04:45:48;;;;;;;4.75;3.33;;;;;;;4.88;100.00;100492.60;1792518;78;21402;-60
2022/10/11 04:48:14;;;;;;;6.12;4.20;;;;;;;4.89;100.00;100489.10;1803022;77;21491;-60
2022/10/11 04:50:41;;;;;;;6.80;5.85;;;;;;;4.90;100.00;100485.64;1789616;78;21473;-60
2022/10/11 04:53:07;;;;;;;6.17;5.47;;;;;;;4.90;100.00;100484.34;1793525;78;22027;-59
2022/10/11 04:55:36;;;;;;;5.80;5.00;;;;;;;4.93;100.00;100484.74;1805737;78;21403;-59
2022/10/11 04:58:02;;;;;;;5.30;4.65;;;;;;;4.95;100.00;100486.45;1753024;80;21549;-60
2022/10/11 05:00:29;;;;;;;4.50;3.77;;;;;;;4.97;100.00;100482.13;1764777;79;21494;-59
2022/10/11 05:02:56;;;;;;;4.60;3.90;;;;;;;5.01;100.00;100480.33;1737788;81;21469;-59
2022/10/11 05:05:23;;;;;;;3.27;2.97;;;;;;;5.06;100.00;100482.48;1770847;80;21862;-59
2022/10/11 05:07:51;;;;;;;4.00;2.87;;;;;;;5.17;100.00;100485.02;1773628;80;21613;-60
2022/10/11 05:10:18;;;;;;;4.10;2.80;;;;;;;5.28;100.00;100483.20;1744585;80;21442;-59
2022/10/11 05:12:44;;;;;;;2.87;2.58;;;;;;;5.39;100.00;100481.37;1801967;78;21402;-59
2022/10/11 05:15:11;;;;;;;4.35;2.67;;;;;;;5.49;100.00;100487.38;1797922;78;21639;-60
2022/10/11 05:17:38;;;;;;;3.02;2.72;;;;;;;5.56;100.00;100487.75;1785820;78;21753;-60
2022/10/11 05:20:06;;;;;;;2.92;2.62;;;;;;;5.63;100.00;100495.06;1799653;77;21485;-61
2022/10/11 05:22:33;;;;;;;2.50;2.30;;;;;;;5.69;100.00;100492.84;1751196;80;21479;-64
2022/10/11 05:24:59;;;;;;;4.00;2.30;;;;;;;5.76;100.00;100489.30;1761052;80;21671;-63
2022/10/11 05:27:26;;;;;;;5.22;2.50;;;;;;;5.81;100.00;100483.60;1794527;78;21517;-63
2022/10/11 05:29:52;;;;;;;3.72;2.58;;;;;;;5.85;100.00;100482.23;1791348;78;21496;-63
2022/10/11 05:32:19;;;;;;;2.67;2.10;;;;;;;5.90;100.00;100481.36;1805247;78;21442;-63
2022/10/11 05:34:46;;;;;;;3.60;2.90;;;;;;;5.95;100.00;100482.15;1748150;79;20961;-63
2022/10/11 05:37:13;;;;;;;5.55;2.40;;;;;;;6.06;100.00;100479.02;1771329;79;21523;-62
2022/10/11 05:39:39;;;;;;;3.47;2.60;;;;;;;6.19;100.00;100479.30;1762721;79;21430;-63
2022/10/11 05:42:06;;;;;;;3.52;2.75;;;;;;;6.31;100.00;100477.42;1765808;79;21802;-64
2022/10/11 05:44:33;;;;;;;4.70;2.55;;;;;;;6.39;100.00;100480.38;1808674;77;21510;-64
2022/10/11 05:47:00;;;;;;;5.10;3.52;;;;;;;6.41;100.00;100482.98;1808536;78;21060;-65
2022/10/11 05:49:26;;;;;;;4.20;2.95;;;;;;;6.40;100.00;100478.20;1788255;77;21491;-65
2022/10/11 05:51:53;;;;;;;4.97;3.40;;;;;;;6.46;100.00;100478.98;1766086;79;21453;-67
2022/10/11 05:54:20;;;;;;;6.08;4.00;;;;;;;6.53;100.00;100474.11;1809557;78;21731;-67
2022/10/11 05:56:47;;;;;;;6.65;4.33;;;;;;;6.60;100.00;100475.31;1807406;78;21524;-67
2022/10/11 05:59:13;;;;;;;7.53;5.30;;;;;;;6.69;100.00;100483.94;1801486;78;21608;-68
2022/10/11 06:01:40;;;;;;;10.00;6.40;;;;;;;6.78;100.00;100485.98;1765943;79;20970;-64
2022/10/11 06:04:07;;;;;;;14.10;7.80;;;;;;;6.96;100.00;100492.69;1759941;80;21529;-68
2022/10/11 06:06:35;;;;;;;9.90;6.22;;;;;;;7.14;100.00;100495.91;1754919;79;21509;-67
2022/10/11 06:09:02;;;;;;;6.62;5.00;;;;;;;7.28;100.00;100497.87;1757724;80;21514;-62
2022/10/11 06:11:29;;;;;;;7.40;5.00;;;;;;;7.37;100.00;100489.03;1797446;78;21509;-66
2022/10/11 06:13:57;;;;;;;7.72;3.87;;;;;;;7.48;100.00;100491.02;1760572;80;21416;-67
2022/10/11 06:16:24;;;;;;;5.62;4.00;;;;;;;7.61;100.00;100485.15;1754920;80;21402;-63
2022/10/11 06:18:54;;;;;;;4.28;2.95;;;;;;;7.71;100.00;100486.70;1767865;80;21545;-66
2022/10/11 06:21:22;;;;;;;4.97;3.40;;;;;;;7.79;100.00;100484.80;1760849;80;21426;-63
2022/10/11 06:23:52;;;;;;;3.35;3.05;;;;;;;7.86;100.00;100484.26;1760263;80;25740;-63
2022/10/11 06:26:19;;;;;;;3.55;2.90;;;;;;;7.94;100.00;100479.73;1765092;79;21037;-66
2022/10/11 06:28:46;;;;;;;3.30;2.85;;;;;;;8.06;100.00;100480.39;1768928;79;22115;-62
2022/10/11 06:31:14;;;;;;;3.60;3.00;;;;;;;8.17;100.00;100478.00;1756792;80;21450;-63
2022/10/11 06:33:42;;;;;;;3.52;2.85;;;;;;;8.40;100.00;100480.61;1760856;80;21040;-64
2022/10/11 06:36:11;;;;;;;4.70;3.00;;;;;;;8.56;100.00;100480.72;1804087;78;20981;-63
2022/10/11 06:38:39;;;;;;;5.05;2.92;;;;;;;8.75;100.00;100477.70;1759556;80;20943;-63
2022/10/11 06:41:20;;;;;;;3.47;3.17;;;;;;;8.88;100.00;100475.67;1766644;80;26781;-64
2022/10/11 06:43:48;;;;;;;3.85;3.20;;;;;;;9.01;100.00;100468.39;1758193;79;21753;-64
2022/10/11 06:46:16;;;;;;;5.72;3.47;;;;;;;9.14;100.00;100469.38;1756450;80;21541;-66
2022/10/11 06:48:44;;;;;;;4.00;2.92;;;;;;;9.26;100.00;100468.67;1797935;78;21462;-66
2022/10/11 06:51:11;;;;;;;3.30;2.65;;;;;;;9.35;100.00;100466.67;1789784;77;21515;-69
2022/10/11 06:53:39;;;;;;;3.85;2.42;;;;;;;9.44;100.00;100464.28;1796261;78;21541;-69
2022/10/11 06:56:09;;;;;;;3.40;2.52;;;;;;;9.52;100.00;100460.16;1764107;80;21709;-70
2022/10/11 06:58:37;;;;;;;4.55;2.40;;;;;;;9.62;100.00;100457.69;1766888;80;21462;-66
2022/10/11 07:01:06;;;;;;;;;;;;;;;9.74;100.00;100467.03;1767695;80;21517;-70
2022/10/11 07:03:32;;;;;;;2.50;2.20;;;;;;;9.80;100.00;100457.67;1763050;80;20429;-69
2022/10/11 07:06:06;;;;;;;2.98;2.30;;;;;;;9.88;100.00;100465.34;1761255;79;21447;-66
2022/10/11 07:08:33;;;;;;;5.70;3.17;;;;;;;9.96;100.00;100462.05;1760626;79;21470;-69
2022/10/11 07:11:01;;;;;;;3.60;2.72;;;;;;;9.96;100.00;100447.59;1772888;79;21415;-68
2022/10/11 07:13:28;;;;;;;4.42;2.70;;;;;;;10.12;100.00;100462.04;1800998;78;21471;-68
2022/10/11 07:15:56;;;;;;;2.62;2.30;;;;;;;10.22;100.00;100459.16;1799716;77;21447;-67
2022/10/11 07:18:23;;;;;;;3.05;2.58;;;;;;;10.29;100.00;100460.25;1769259;78;21600;-70
2022/10/11 07:20:51;;;;;;;2.33;2.12;;;;;;;10.40;100.00;100452.56;1799027;78;21812;-70
2022/10/11 07:23:17;;;;;;;3.47;2.33;;;;;;;10.48;100.00;100453.18;1761372;79;21111;-67
2022/10/11 07:25:44;;;;;;;3.92;1.90;;;;;;;10.59;100.00;100451.56;1800052;78;21031;-68
2022/10/11 07:28:12;;;;;;;2.37;1.90;;;;;;;10.75;100.00;100448.00;1794542;78;21659;-69
2022/10/11 07:30:39;;;;;;;1.62;1.50;;;;;;;10.94;100.00;100441.70;1802239;78;21043;-69
2022/10/11 07:33:06;;;;;;;2.45;1.60;;;;;;;11.10;100.00;100444.27;1804222;77;22001;-69
2022/10/11 07:35:35;;;;;;;3.67;1.50;;;;;;;11.28;100.00;100446.30;1771749;80;20990;-67
2022/10/11 07:38:03;;;;;;;1.60;1.50;;;;;;;11.40;100.00;100438.44;1799320;77;21901;-70
2022/10/11 07:40:30;;;;;;;1.77;1.35;;;;;;;11.52;100.00;100434.52;1764835;79;21431;-70
2022/10/11 07:42:57;;;;;;;1.80;1.12;;;;;;;11.62;100.00;100434.63;1758610;78;21508;-70
2022/10/11 07:45:27;;;;;;;3.95;1.32;;;;;;;11.37;100.00;100375.81;1792416;78;21683;-70
2022/10/11 07:47:57;;;;;;;1.85;1.20;;;;;;;11.82;100.00;100427.33;1770386;79;21592;-69
2022/10/11 07:50:23;;;;;;;1.85;1.40;;;;;;;11.90;100.00;100427.09;1748257;81;21664;-69
2022/10/11 07:52:50;;;;;;;2.77;2.15;;;;;;;11.95;100.00;100421.20;1744663;81;21013;-70
2022/10/11 07:55:17;;;;;;;2.80;1.50;;;;;;;11.98;100.00;100425.05;1738027;80;21467;-70
2022/10/11 07:57:43;;;;;;;2.08;1.65;;;;;;;12.04;100.00;100428.78;1746353;80;22025;-70
2022/10/11 08:00:12;;;;;;;2.75;1.40;;;;;;;12.13;100.00;100416.16;1746828;80;21591;-70
2022/10/11 08:02:39;;;;;;;3.08;1.32;;;;;;;12.21;99.14;100419.40;1751222;80;21517;-70
2022/10/11 08:05:07;;;;;;;2.27;1.95;;;;;;;12.32;99.44;100417.22;1745850;80;20985;-69
2022/10/11 08:07:35;;;;;;;3.15;1.75;;;;;;;12.40;97.56;100418.24;1753633;80;21837;-69
2022/10/11 08:10:04;;;;;;;2.17;1.98;;;;;;;12.49;97.34;100420.97;1721038;81;21872;-69
2022/10/11 08:12:30;;;;;;;4.70;2.30;;;;;;;12.52;96.97;100419.08;1756085;80;21525;-69
2022/10/11 08:14:57;;;;;;;3.27;2.45;;;;;;;12.62;96.54;100421.78;1743914;79;21523;-70
2022/10/11 08:17:25;;;;;;;2.20;2.00;;;;;;;12.74;96.80;100418.27;1741370;80;21612;-69
2022/10/11 08:19:52;;;;;;;4.53;2.22;;;;;;;12.84;97.11;100417.81;1752246;79;21501;-71
2022/10/11 08:22:18;;;;;;;3.12;2.83;;;;;;;12.96;95.68;100414.28;1747094;80;21787;-69
2022/10/11 08:25:07;;;;;;;4.80;2.85;;;;;;;13.02;95.71;100412.27;1763723;80;21509;-70
2022/10/11 08:27:35;;;;;;;3.83;2.80;;;;;;;13.09;94.75;100419.48;1773618;80;21534;-69
2022/10/11 08:30:51;;;;;;;3.87;3.42;;;;;;;12.93;95.41;100414.42;1781278;78;23171;-71
2022/10/11 08:33:18;;;;;;;4.87;3.17;;;;;;;13.17;91.45;100404.65;1737980;80;21671;-72
2022/10/11 08:35:44;;;;;;;4.62;2.98;;;;;;;13.20;91.53;100406.70;1741752;80;21747;-71
2022/10/11 08:38:11;;;;;;;5.05;2.90;;;;;;;13.26;90.96;100402.95;1738458;80;21652;-72
2022/10/11 08:40:40;;;;;;;3.92;2.85;;;;;;;13.32;89.15;100404.03;1743484;79;21501;-71
2022/10/11 08:43:11;;;;;;;3.45;3.00;;;;;;;13.33;88.81;100399.61;1727092;80;21612;-71
2022/10/11 08:45:48;;;;;;;4.22;2.45;;;;;;;13.42;88.55;100400.07;1739491;80;21577;-71
2022/10/11 08:48:41;;;;;;;2.50;2.02;;;;;;;13.53;87.22;100393.48;1695554;82;21780;-70
2022/10/11 08:51:31;;;;;;;2.47;2.10;;;;;;;13.65;86.49;100400.02;1603627;87;21599;-71
2022/10/11 08:54:13;;;;;;;2.30;2.10;;;;;;;13.79;85.63;100404.25;1643449;83;21607;-71
2022/10/11 08:56:42;;;;;;;3.27;2.50;;;;;;;13.92;83.57;100400.57;1637880;84;21529;-69
2022/10/11 08:59:20;;;;;;;2.77;1.90;;;;;;;13.87;82.08;100400.79;1648004;84;21542;-70
2022/10/11 09:01:52;;;;;;;2.40;1.95;;;;;;;13.93;81.39;100400.50;1634730;84;21779;-69
2022/10/11 09:04:20;;;;;;;1.75;1.65;;;;;;;14.03;81.29;100389.05;1652970;83;21447;-70
2022/10/11 09:07:16;;;;;;;1.98;1.75;;;;;;;14.12;80.67;100388.63;1636969;84;21569;-70
2022/10/11 09:09:56;;;;;;;1.50;1.40;;;;;;;14.25;79.84;100392.91;1643314;83;21662;-69
2022/10/11 09:12:50;;;;;;;2.00;1.42;;;;;;;14.32;79.63;100391.70;1654674;84;21501;-71
2022/10/11 09:15:52;;;;;;;3.50;1.20;;;;;;;14.40;78.40;100384.72;1610825;86;21907;-70
2022/10/11 09:18:43;;;;;;;1.55;1.45;;;;;;;14.53;76.90;100384.53;1644557;84;21560;-70
2022/10/11 09:21:38;;;;;;;3.05;1.12;;;;;;;14.59;75.40;100388.23;1636403;84;21612;-70
2022/10/11 09:24:52;;;;;;;3.25;1.15;;;;;;;14.64;75.13;100388.03;1607329;86;21551;-67
2022/10/11 09:27:39;;;;;;;5.80;1.40;;;;;;;14.75;73.53;100384.41;1594168;86;21438;-68
2022/10/11 09:30:17;;;;;;;2.35;1.55;;;;;;;14.84;72.98;100381.75;1563903;88;21789;-67
2022/10/11 09:32:59;;;;;;;1.87;1.30;;;;;;;14.94;71.58;100385.69;1644781;84;21069;-68
2022/10/11 09:35:28;;;;;;;1.75;1.47;;;;;;;15.12;70.95;100379.08;1639617;85;21571;-69
2022/10/11 09:38:12;;;;;;;4.70;1.45;;;;;;;15.16;69.86;100377.55;1609176;86;20997;-68
2022/10/11 09:41:10;;;;;;;1.10;1.00;;;;;;;15.21;68.99;100374.65;1640969;84;21539;-68
2022/10/11 09:43:37;;;;;;;2.00;1.80;;;;;;;15.29;68.29;100377.75;1630951;85;21549;-68
2022/10/11 09:46:36;;;;;;;2.17;1.40;;;;;;;15.40;68.01;100366.62;1651131;84;21663;-69
2022/10/11 09:49:05;;;;;;;1.30;1.20;;;;;;;15.52;68.63;100373.95;1588763;87;21667;-68
2022/10/11 09:51:32;;;;;;;2.70;1.70;;;;;;;15.59;66.82;100366.52;1549453;90;21594;-69
2022/10/11 09:54:04;;;;;;;3.52;1.10;;;;;;;15.58;65.01;100367.00;1576416;85;21459;-69
2022/10/11 09:56:32;;;;;;;3.15;1.35;;;;;;;15.58;64.60;100365.67;1635235;85;21799;-69
2022/10/11 09:59:29;;;;;;;2.05;1.02;;;;;;;15.54;63.79;100349.55;1624314;85;21042;-69
2022/10/11 10:02:21;;;;;;;1.40;1.30;;;;;;;15.71;62.76;100357.94;1634340;85;21534;-68
2022/10/11 10:05:04;;;;;;;1.55;1.42;;;;;;;15.73;61.72;100352.56;1631582;84;21606;-68
2022/10/11 10:07:32;;;;;;;3.62;1.40;;;;;;;15.74;62.93;100348.52;1602971;87;21566;-67
2022/10/11 10:10:01;;;;;;;1.85;1.20;;;;;;;15.82;61.60;100348.09;1627492;85;21783;-69
2022/10/11 10:12:29;;;;;;;1.42;1.20;;;;;;;15.95;62.30;100351.84;1599636;88;21681;-68
2022/10/11 10:15:06;;;;;;;3.50;1.50;;;;;;;16.06;59.47;100352.56;1641473;85;26954;-69
2022/10/11 10:17:34;;;;;;;2.17;1.22;;;;;;;16.02;58.68;100347.52;1633245;85;21514;-68
2022/10/11 10:20:04;;;;;;;2.40;1.37;;;;;;;16.04;58.24;100344.31;1632890;85;21558;-69
2022/10/11 10:22:32;;;;;;;3.70;1.15;;;;;;;16.07;58.50;100342.35;1634467;85;21875;-68
2022/10/11 10:25:01;;;;;;;1.20;1.10;;;;;;;16.20;57.69;100342.54;1597910;87;21551;-68
2022/10/11 10:27:29;;;;;;;2.55;0.95;;;;;;;16.31;56.42;100338.83;1634345;85;21581;-69
2022/10/11 10:30:15;;;;;;;1.37;1.10;;;;;;;16.38;55.23;100333.16;1581446;87;21477;-69
2022/10/11 10:32:54;;;;;;;1.25;1.05;;;;;;;16.43;55.03;100329.31;1632594;85;21638;-68
2022/10/11 10:35:35;;;;;;;3.02;1.30;;;;;;;16.46;52.61;100329.59;1633776;85;21577;-70
2022/10/11 10:38:09;;;;;;;0.85;0.85;;;;;;;16.45;51.16;100322.11;1632741;85;21542;-71
2022/10/11 10:41:03;;;;;;;1.25;1.12;;;;;;;16.45;49.54;100318.61;1599111;86;21569;-74
2022/10/11 10:43:34;;;;;;;1.57;1.35;;;;;;;16.47;50.03;100324.69;1627603;85;21601;-72
2022/10/11 10:46:15;;;;;;;3.72;1.52;;;;;;;16.58;48.86;100324.94;1605879;86;21601;-70
2022/10/11 10:49:10;;;;;;;1.20;1.05;;;;;;;16.65;48.40;100319.66;1631829;85;21576;-69
2022/10/11 10:51:49;;;;;;;1.77;1.20;;;;;;;16.68;47.22;100312.83;1638436;85;21578;-72
2022/10/11 10:54:54;;;;;;;1.42;1.32;;;;;;;16.64;48.06;100310.45;1635392;85;21542;-71
2022/10/11 10:57:42;;;;;;;1.40;1.30;;;;;;;16.70;48.37;100299.47;1608682;86;21499;-73
2022/10/11 11:00:18;;;;;;;4.12;1.65;;;;;;;16.78;47.28;100301.20;1630545;85;21070;-70
2022/10/11 11:03:01;;;;;;;3.12;1.50;;;;;;;16.94;47.66;100291.91;1637780;84;21776;-70
2022/10/11 11:05:42;;;;;;;1.85;1.70;;;;;;;17.14;47.95;100290.73;1628763;85;21588;-68
2022/10/11 11:08:31;;;;;;;3.47;1.90;;;;;;;17.31;47.37;100295.89;1630611;85;21601;-71
2022/10/11 11:11:32;;;;;;;1.80;1.70;;;;;;;17.42;47.14;100288.59;1632961;84;21466;-71
2022/10/11 11:14:10;;;;;;;4.47;1.80;;;;;;;17.48;47.14;100288.70;1620802;85;21513;-73
2022/10/11 11:17:10;;;;;;;2.45;1.42;;;;;;;17.51;45.77;100285.34;1631744;85;22239;-71
2022/10/11 11:20:02;;;;;;;1.62;1.40;;;;;;;17.50;45.20;100282.33;1623386;85;21049;-68
2022/10/11 11:23:12;;;;;;;1.60;1.32;;;;;;;17.59;44.15;100277.37;1632202;85;21462;-68
2022/10/11 11:26:10;;;;;;;1.42;1.32;;;;;;;17.77;44.05;100272.73;1634079;85;21665;-67
2022/10/11 11:29:04;;;;;;;2.00;1.20;;;;;;;17.85;43.25;100265.98;1627903;85;21081;-66
2022/10/11 11:32:02;;;;;;;0.80;0.72;;;;;;;17.84;42.08;100268.28;1637695;84;21773;-68
2022/10/11 11:34:40;;;;;;;1.02;0.82;;;;;;;17.84;41.79;100264.30;1595560;87;21824;-67
2022/10/11 11:37:16;;;;;;;1.20;0.95;;;;;;;17.99;41.42;100263.80;1635735;85;21533;-67
2022/10/11 11:39:48;;;;;;;1.70;0.90;;;;;;;18.09;41.18;100258.26;1631842;85;21573;-66
2022/10/11 11:42:23;;;;;;;1.07;0.98;;;;;;;18.15;40.50;100259.67;1638821;84;21550;-69
2022/10/11 11:44:50;;;;;;;0.90;0.90;;;;;;;18.16;40.21;100255.19;1631292;85;21553;-71
2022/10/11 12:00:03;;;;;;;1.05;0.95;;;;;;;17.49;41.57;100250.03;1841423;75;26122;-69
2022/10/11 12:02:40;;;;;;;1.27;1.07;;;;;;;17.77;40.87;100246.14;1848421;75;21406;-70
2022/10/11 12:05:09;;;;;;;2.62;1.00;;;;;;;17.87;40.55;100245.47;1849490;76;21782;-66